sensor_id;sensor_type;location;lat;lon;timestamp;P1;durP1;ratioP1;P2;durP2;ratioP2
70908;SDS011;58554;52.006;5.926;2023-05-10T00:02:18;16.23;;;8.47;;
70908;SDS011;58554;52.006;5.926;2023-05-10T00:04:45;15.93;;;8.57;;
70908;SDS011;58554;52.006;5.926;2023-05-10T00:07:12;19.98;;;9.02;;
70908;SDS011;58554;52.006;5.926;2023-05-10T00:09:38;18.03;;;8.93;;
70908;SDS011;58554;52.006;5.926;2023-05-10T00:12:05;17.53;;;9.37;;
70908;SDS011;58554;52.006;5.926;2023-05-10T00:14:32;17.43;;;9.47;;
70908;SDS011;58554;52.006;5.926;2023-05-10T00:17:01;17.00;;;9.20;;
70908;SDS011;58554;52.006;5.926;2023-05-10T00:19:27;19.23;;;10.00;;
70908;SDS011;58554;52.006;5.926;2023-05-10T00:21:54;18.57;;;9.30;;
70908;SDS011;58554;52.006;5.926;2023-05-10T00:24:20;19.27;;;10.20;;
70908;SDS011;58554;52.006;5.926;2023-05-10T00:26:47;21.17;;;10.47;;
70908;SDS011;58554;52.006;5.926;2023-05-10T00:29:13;19.67;;;10.67;;
70908;SDS011;58554;52.006;5.926;2023-05-10T00:31:40;22.27;;;11.13;;
70908;SDS011;58554;52.006;5.926;2023-05-10T00:34:11;22.08;;;11.23;;
70908;SDS011;58554;52.006;5.926;2023-05-10T00:36:38;23.13;;;11.02;;
70908;SDS011;58554;52.006;5.926;2023-05-10T00:39:05;24.73;;;11.60;;
70908;SDS011;58554;52.006;5.926;2023-05-10T00:41:31;25.85;;;11.90;;
70908;SDS011;58554;52.006;5.926;2023-05-10T00:43:58;26.65;;;12.20;;
70908;SDS011;58554;52.006;5.926;2023-05-10T00:46:25;28.23;;;12.80;;
70908;SDS011;58554;52.006;5.926;2023-05-10T00:48:52;25.13;;;12.38;;
70908;SDS011;58554;52.006;5.926;2023-05-10T00:51:22;26.27;;;12.00;;
70908;SDS011;58554;52.006;5.926;2023-05-10T00:53:48;24.23;;;11.88;;
70908;SDS011;58554;52.006;5.926;2023-05-10T00:56:16;26.17;;;12.43;;
70908;SDS011;58554;52.006;5.926;2023-05-10T00:58:43;26.17;;;12.33;;
70908;SDS011;58554;52.006;5.926;2023-05-10T01:01:10;28.73;;;12.95;;
70908;SDS011;58554;52.006;5.926;2023-05-10T01:03:38;28.13;;;12.57;;
70908;SDS011;58554;52.006;5.926;2023-05-10T01:06:05;27.02;;;12.80;;
70908;SDS011;58554;52.006;5.926;2023-05-10T01:08:35;25.23;;;12.40;;
70908;SDS011;58554;52.006;5.926;2023-05-10T01:11:02;27.88;;;13.75;;
70908;SDS011;58554;52.006;5.926;2023-05-10T01:13:30;28.55;;;13.38;;
70908;SDS011;58554;52.006;5.926;2023-05-10T01:16:01;27.70;;;13.70;;
70908;SDS011;58554;52.006;5.926;2023-05-10T01:18:28;28.38;;;12.93;;
70908;SDS011;58554;52.006;5.926;2023-05-10T01:21:00;32.95;;;13.65;;
70908;SDS011;58554;52.006;5.926;2023-05-10T01:23:57;28.45;;;13.73;;
70908;SDS011;58554;52.006;5.926;2023-05-10T01:33:09;28.63;;;14.25;;
70908;SDS011;58554;52.006;5.926;2023-05-10T01:35:46;28.87;;;14.23;;
70908;SDS011;58554;52.006;5.926;2023-05-10T01:38:22;30.10;;;14.98;;
70908;SDS011;58554;52.006;5.926;2023-05-10T01:41:01;31.95;;;15.75;;
70908;SDS011;58554;52.006;5.926;2023-05-10T01:43:42;32.60;;;15.95;;
70908;SDS011;58554;52.006;5.926;2023-05-10T01:46:23;32.88;;;15.30;;
70908;SDS011;58554;52.006;5.926;2023-05-10T01:49:03;31.25;;;16.27;;
70908;SDS011;58554;52.006;5.926;2023-05-10T01:51:39;33.70;;;16.63;;
70908;SDS011;58554;52.006;5.926;2023-05-10T01:54:13;33.05;;;16.55;;
70908;SDS011;58554;52.006;5.926;2023-05-10T01:56:43;36.50;;;17.47;;
70908;SDS011;58554;52.006;5.926;2023-05-10T01:59:15;34.00;;;16.17;;
70908;SDS011;58554;52.006;5.926;2023-05-10T02:01:45;34.07;;;16.30;;
70908;SDS011;58554;52.006;5.926;2023-05-10T02:04:18;34.25;;;16.38;;
70908;SDS011;58554;52.006;5.926;2023-05-10T02:06:49;33.80;;;16.45;;
70908;SDS011;58554;52.006;5.926;2023-05-10T02:09:21;31.50;;;15.47;;
70908;SDS011;58554;52.006;5.926;2023-05-10T02:11:51;33.03;;;16.03;;
70908;SDS011;58554;52.006;5.926;2023-05-10T02:14:20;32.67;;;16.40;;
70908;SDS011;58554;52.006;5.926;2023-05-10T02:16:48;31.40;;;15.43;;
70908;SDS011;58554;52.006;5.926;2023-05-10T02:19:22;32.40;;;15.40;;
70908;SDS011;58554;52.006;5.926;2023-05-10T02:21:51;32.60;;;15.80;;
70908;SDS011;58554;52.006;5.926;2023-05-10T02:24:21;29.98;;;15.68;;
70908;SDS011;58554;52.006;5.926;2023-05-10T02:26:50;31.90;;;14.40;;
70908;SDS011;58554;52.006;5.926;2023-05-10T02:29:21;31.20;;;14.82;;
70908;SDS011;58554;52.006;5.926;2023-05-10T02:31:51;33.07;;;15.50;;
70908;SDS011;58554;52.006;5.926;2023-05-10T02:34:22;33.00;;;15.48;;
70908;SDS011;58554;52.006;5.926;2023-05-10T02:36:53;34.38;;;15.45;;
70908;SDS011;58554;52.006;5.926;2023-05-10T02:39:22;34.93;;;15.43;;
70908;SDS011;58554;52.006;5.926;2023-05-10T02:41:52;31.92;;;14.65;;
70908;SDS011;58554;52.006;5.926;2023-05-10T02:44:20;32.38;;;15.50;;
70908;SDS011;58554;52.006;5.926;2023-05-10T02:46:49;31.70;;;14.87;;
70908;SDS011;58554;52.006;5.926;2023-05-10T02:49:16;31.60;;;14.13;;
70908;SDS011;58554;52.006;5.926;2023-05-10T02:51:49;32.22;;;14.77;;
70908;SDS011;58554;52.006;5.926;2023-05-10T02:54:24;29.30;;;14.18;;
70908;SDS011;58554;52.006;5.926;2023-05-10T02:56:59;29.67;;;14.40;;
70908;SDS011;58554;52.006;5.926;2023-05-10T02:59:30;32.10;;;14.80;;
70908;SDS011;58554;52.006;5.926;2023-05-10T03:01:57;32.57;;;15.33;;
70908;SDS011;58554;52.006;5.926;2023-05-10T03:04:27;33.93;;;14.20;;
70908;SDS011;58554;52.006;5.926;2023-05-10T03:06:56;33.37;;;15.13;;
70908;SDS011;58554;52.006;5.926;2023-05-10T03:09:23;31.27;;;14.07;;
70908;SDS011;58554;52.006;5.926;2023-05-10T03:11:55;31.98;;;14.57;;
70908;SDS011;58554;52.006;5.926;2023-05-10T03:14:34;32.53;;;15.33;;
70908;SDS011;58554;52.006;5.926;2023-05-10T03:17:17;31.53;;;14.80;;
70908;SDS011;58554;52.006;5.926;2023-05-10T03:19:55;32.95;;;15.10;;
70908;SDS011;58554;52.006;5.926;2023-05-10T03:22:32;31.93;;;14.47;;
70908;SDS011;58554;52.006;5.926;2023-05-10T03:25:05;31.47;;;14.50;;
70908;SDS011;58554;52.006;5.926;2023-05-10T03:27:40;32.70;;;14.27;;
70908;SDS011;58554;52.006;5.926;2023-05-10T03:30:10;31.43;;;14.03;;
70908;SDS011;58554;52.006;5.926;2023-05-10T03:32:39;32.20;;;14.80;;
70908;SDS011;58554;52.006;5.926;2023-05-10T03:35:06;30.70;;;13.37;;
70908;SDS011;58554;52.006;5.926;2023-05-10T03:37:36;31.30;;;14.53;;
70908;SDS011;58554;52.006;5.926;2023-05-10T03:40:03;30.05;;;14.13;;
70908;SDS011;58554;52.006;5.926;2023-05-10T03:42:31;30.33;;;13.97;;
70908;SDS011;58554;52.006;5.926;2023-05-10T03:44:57;29.03;;;13.20;;
70908;SDS011;58554;52.006;5.926;2023-05-10T03:47:24;31.63;;;14.07;;
70908;SDS011;58554;52.006;5.926;2023-05-10T03:49:50;31.43;;;14.23;;
70908;SDS011;58554;52.006;5.926;2023-05-10T03:52:17;30.40;;;14.73;;
70908;SDS011;58554;52.006;5.926;2023-05-10T03:54:46;30.67;;;13.70;;
70908;SDS011;58554;52.006;5.926;2023-05-10T03:57:13;32.83;;;14.73;;
70908;SDS011;58554;52.006;5.926;2023-05-10T03:59:39;34.03;;;14.67;;
70908;SDS011;58554;52.006;5.926;2023-05-10T04:02:06;32.57;;;14.33;;
70908;SDS011;58554;52.006;5.926;2023-05-10T04:04:33;30.97;;;14.10;;
70908;SDS011;58554;52.006;5.926;2023-05-10T04:06:59;32.13;;;14.90;;
70908;SDS011;58554;52.006;5.926;2023-05-10T04:09:26;31.60;;;14.73;;
70908;SDS011;58554;52.006;5.926;2023-05-10T04:11:55;33.13;;;14.43;;
70908;SDS011;58554;52.006;5.926;2023-05-10T04:14:21;36.27;;;16.03;;
70908;SDS011;58554;52.006;5.926;2023-05-10T04:16:48;33.03;;;14.20;;
70908;SDS011;58554;52.006;5.926;2023-05-10T04:19:14;33.20;;;14.57;;
70908;SDS011;58554;52.006;5.926;2023-05-10T04:21:41;32.00;;;14.77;;
70908;SDS011;58554;52.006;5.926;2023-05-10T04:24:09;34.77;;;15.20;;
70908;SDS011;58554;52.006;5.926;2023-05-10T04:26:36;35.03;;;14.87;;
70908;SDS011;58554;52.006;5.926;2023-05-10T04:29:05;31.30;;;13.88;;
70908;SDS011;58554;52.006;5.926;2023-05-10T04:31:35;35.13;;;15.33;;
70908;SDS011;58554;52.006;5.926;2023-05-10T04:34:01;34.17;;;14.17;;
70908;SDS011;58554;52.006;5.926;2023-05-10T04:36:27;33.40;;;14.40;;
70908;SDS011;58554;52.006;5.926;2023-05-10T04:38:54;33.67;;;14.00;;
70908;SDS011;58554;52.006;5.926;2023-05-10T04:41:21;34.73;;;14.53;;
70908;SDS011;58554;52.006;5.926;2023-05-10T04:43:47;35.60;;;14.20;;
70908;SDS011;58554;52.006;5.926;2023-05-10T04:46:16;36.40;;;15.03;;
70908;SDS011;58554;52.006;5.926;2023-05-10T04:48:43;37.13;;;15.20;;
70908;SDS011;58554;52.006;5.926;2023-05-10T04:51:10;37.00;;;15.57;;
70908;SDS011;58554;52.006;5.926;2023-05-10T04:53:36;36.50;;;14.80;;
70908;SDS011;58554;52.006;5.926;2023-05-10T04:56:03;34.83;;;14.50;;
70908;SDS011;58554;52.006;5.926;2023-05-10T04:58:31;38.17;;;15.13;;
70908;SDS011;58554;52.006;5.926;2023-05-10T05:00:59;35.13;;;14.70;;
70908;SDS011;58554;52.006;5.926;2023-05-10T05:03:34;35.80;;;15.43;;
70908;SDS011;58554;52.006;5.926;2023-05-10T05:06:01;40.10;;;14.97;;
70908;SDS011;58554;52.006;5.926;2023-05-10T05:08:28;38.20;;;16.37;;
70908;SDS011;58554;52.006;5.926;2023-05-10T05:10:55;41.00;;;15.53;;
70908;SDS011;58554;52.006;5.926;2023-05-10T05:13:21;42.20;;;15.67;;
70908;SDS011;58554;52.006;5.926;2023-05-10T05:15:48;39.73;;;14.90;;
70908;SDS011;58554;52.006;5.926;2023-05-10T05:18:15;41.67;;;15.33;;
70908;SDS011;58554;52.006;5.926;2023-05-10T05:20:44;38.97;;;15.38;;
70908;SDS011;58554;52.006;5.926;2023-05-10T05:23:10;38.33;;;14.60;;
70908;SDS011;58554;52.006;5.926;2023-05-10T05:25:37;36.70;;;13.50;;
70908;SDS011;58554;52.006;5.926;2023-05-10T05:28:04;40.23;;;15.00;;
70908;SDS011;58554;52.006;5.926;2023-05-10T05:30:30;37.23;;;14.13;;
70908;SDS011;58554;52.006;5.926;2023-05-10T05:32:57;33.13;;;13.97;;
70908;SDS011;58554;52.006;5.926;2023-05-10T05:35:23;34.70;;;14.20;;
70908;SDS011;58554;52.006;5.926;2023-05-10T05:37:53;35.38;;;13.68;;
70908;SDS011;58554;52.006;5.926;2023-05-10T05:40:19;39.80;;;15.10;;
70908;SDS011;58554;52.006;5.926;2023-05-10T05:42:46;37.30;;;13.77;;
70908;SDS011;58554;52.006;5.926;2023-05-10T05:45:12;34.65;;;13.48;;
70908;SDS011;58554;52.006;5.926;2023-05-10T05:47:39;35.10;;;14.07;;
70908;SDS011;58554;52.006;5.926;2023-05-10T05:50:06;38.45;;;14.05;;
70908;SDS011;58554;52.006;5.926;2023-05-10T05:52:33;34.17;;;14.07;;
70908;SDS011;58554;52.006;5.926;2023-05-10T05:55:03;35.05;;;13.85;;
70908;SDS011;58554;52.006;5.926;2023-05-10T05:57:30;35.30;;;13.70;;
70908;SDS011;58554;52.006;5.926;2023-05-10T05:59:57;31.85;;;13.23;;
70908;SDS011;58554;52.006;5.926;2023-05-10T06:02:23;35.03;;;13.38;;
70908;SDS011;58554;52.006;5.926;2023-05-10T06:04:50;34.50;;;13.82;;
70908;SDS011;58554;52.006;5.926;2023-05-10T06:07:16;35.90;;;12.98;;
70908;SDS011;58554;52.006;5.926;2023-05-10T06:09:43;34.33;;;14.50;;
70908;SDS011;58554;52.006;5.926;2023-05-10T06:20:04;39.38;;;13.10;;
70908;SDS011;58554;52.006;5.926;2023-05-10T06:22:32;32.90;;;12.52;;
70908;SDS011;58554;52.006;5.926;2023-05-10T06:24:59;33.30;;;12.90;;
70908;SDS011;58554;52.006;5.926;2023-05-10T06:27:25;38.70;;;14.07;;
70908;SDS011;58554;52.006;5.926;2023-05-10T06:29:52;38.50;;;13.13;;
70908;SDS011;58554;52.006;5.926;2023-05-10T06:32:18;38.10;;;13.85;;
70908;SDS011;58554;52.006;5.926;2023-05-10T06:34:45;36.00;;;13.93;;
70908;SDS011;58554;52.006;5.926;2023-05-10T06:37:14;35.15;;;13.40;;
70908;SDS011;58554;52.006;5.926;2023-05-10T06:39:40;37.47;;;14.18;;
70908;SDS011;58554;52.006;5.926;2023-05-10T06:42:07;39.22;;;13.95;;
70908;SDS011;58554;52.006;5.926;2023-05-10T06:44:33;35.95;;;13.20;;
70908;SDS011;58554;52.006;5.926;2023-05-10T06:47:01;36.10;;;14.02;;
70908;SDS011;58554;52.006;5.926;2023-05-10T06:49:28;40.25;;;13.88;;
70908;SDS011;58554;52.006;5.926;2023-05-10T06:51:55;35.90;;;14.45;;
70908;SDS011;58554;52.006;5.926;2023-05-10T06:54:24;37.87;;;14.60;;
70908;SDS011;58554;52.006;5.926;2023-05-10T06:56:51;35.95;;;14.68;;
70908;SDS011;58554;52.006;5.926;2023-05-10T06:59:17;37.50;;;14.30;;
70908;SDS011;58554;52.006;5.926;2023-05-10T07:01:44;38.50;;;14.10;;
70908;SDS011;58554;52.006;5.926;2023-05-10T07:04:10;43.53;;;14.88;;
70908;SDS011;58554;52.006;5.926;2023-05-10T07:06:36;37.47;;;15.07;;
70908;SDS011;58554;52.006;5.926;2023-05-10T07:09:03;41.05;;;15.32;;
70908;SDS011;58554;52.006;5.926;2023-05-10T07:11:32;41.30;;;15.37;;
70908;SDS011;58554;52.006;5.926;2023-05-10T07:13:58;41.17;;;14.87;;
70908;SDS011;58554;52.006;5.926;2023-05-10T07:16:25;39.23;;;15.50;;
70908;SDS011;58554;52.006;5.926;2023-05-10T07:18:51;42.13;;;16.20;;
70908;SDS011;58554;52.006;5.926;2023-05-10T07:21:18;39.45;;;16.27;;
70908;SDS011;58554;52.006;5.926;2023-05-10T07:23:44;38.58;;;14.93;;
70908;SDS011;58554;52.006;5.926;2023-05-10T07:26:11;37.73;;;15.17;;
70908;SDS011;58554;52.006;5.926;2023-05-10T07:28:40;36.07;;;14.70;;
70908;SDS011;58554;52.006;5.926;2023-05-10T07:31:06;38.85;;;15.18;;
70908;SDS011;58554;52.006;5.926;2023-05-10T07:33:33;36.20;;;14.83;;
70908;SDS011;58554;52.006;5.926;2023-05-10T07:35:59;38.88;;;14.63;;
70908;SDS011;58554;52.006;5.926;2023-05-10T07:38:26;41.33;;;15.40;;
70908;SDS011;58554;52.006;5.926;2023-05-10T07:40:52;35.72;;;15.25;;
70908;SDS011;58554;52.006;5.926;2023-05-10T07:43:18;40.47;;;15.25;;
70908;SDS011;58554;52.006;5.926;2023-05-10T07:45:48;40.65;;;15.00;;
70908;SDS011;58554;52.006;5.926;2023-05-10T07:48:14;38.80;;;15.23;;
70908;SDS011;58554;52.006;5.926;2023-05-10T07:50:41;37.95;;;14.60;;
70908;SDS011;58554;52.006;5.926;2023-05-10T07:53:07;35.40;;;14.85;;
70908;SDS011;58554;52.006;5.926;2023-05-10T07:55:34;36.70;;;14.77;;
70908;SDS011;58554;52.006;5.926;2023-05-10T07:58:00;34.55;;;13.55;;
70908;SDS011;58554;52.006;5.926;2023-05-10T08:00:27;34.90;;;13.40;;
70908;SDS011;58554;52.006;5.926;2023-05-10T08:02:56;33.25;;;13.13;;
70908;SDS011;58554;52.006;5.926;2023-05-10T08:05:22;31.48;;;13.63;;
70908;SDS011;58554;52.006;5.926;2023-05-10T08:07:49;32.70;;;13.63;;
70908;SDS011;58554;52.006;5.926;2023-05-10T08:10:16;33.50;;;13.37;;
70908;SDS011;58554;52.006;5.926;2023-05-10T08:12:42;36.42;;;13.60;;
70908;SDS011;58554;52.006;5.926;2023-05-10T08:15:09;35.85;;;13.25;;
70908;SDS011;58554;52.006;5.926;2023-05-10T08:17:36;32.37;;;14.07;;
70908;SDS011;58554;52.006;5.926;2023-05-10T08:20:06;38.80;;;14.40;;
70908;SDS011;58554;52.006;5.926;2023-05-10T08:22:34;30.00;;;13.10;;
70908;SDS011;58554;52.006;5.926;2023-05-10T08:25:00;30.30;;;12.50;;
70908;SDS011;58554;52.006;5.926;2023-05-10T08:27:27;54.40;;;23.80;;
70908;SDS011;58554;52.006;5.926;2023-05-10T08:29:53;35.07;;;13.37;;
70908;SDS011;58554;52.006;5.926;2023-05-10T08:32:20;31.93;;;12.43;;
70908;SDS011;58554;52.006;5.926;2023-05-10T08:34:46;30.35;;;13.27;;
70908;SDS011;58554;52.006;5.926;2023-05-10T08:37:15;30.50;;;12.93;;
70908;SDS011;58554;52.006;5.926;2023-05-10T08:39:42;31.13;;;12.82;;
70908;SDS011;58554;52.006;5.926;2023-05-10T08:42:08;31.50;;;13.60;;
70908;SDS011;58554;52.006;5.926;2023-05-10T08:44:35;27.92;;;12.20;;
70908;SDS011;58554;52.006;5.926;2023-05-10T08:47:04;27.33;;;11.55;;
70908;SDS011;58554;52.006;5.926;2023-05-10T08:49:32;24.60;;;10.97;;
70908;SDS011;58554;52.006;5.926;2023-05-10T08:51:59;25.63;;;9.93;;
70908;SDS011;58554;52.006;5.926;2023-05-10T08:54:32;20.92;;;9.60;;
70908;SDS011;58554;52.006;5.926;2023-05-10T08:56:59;20.35;;;9.35;;
70908;SDS011;58554;52.006;5.926;2023-05-10T08:59:27;23.67;;;9.75;;
70908;SDS011;58554;52.006;5.926;2023-05-10T09:01:55;20.77;;;9.23;;
70908;SDS011;58554;52.006;5.926;2023-05-10T09:04:23;21.83;;;9.48;;
70908;SDS011;58554;52.006;5.926;2023-05-10T09:06:50;21.40;;;9.43;;
70908;SDS011;58554;52.006;5.926;2023-05-10T09:09:17;20.90;;;8.90;;
70908;SDS011;58554;52.006;5.926;2023-05-10T09:11:47;25.80;;;10.63;;
70908;SDS011;58554;52.006;5.926;2023-05-10T09:14:14;22.63;;;9.68;;
70908;SDS011;58554;52.006;5.926;2023-05-10T09:16:42;19.77;;;9.00;;
70908;SDS011;58554;52.006;5.926;2023-05-10T09:19:09;20.13;;;8.48;;
70908;SDS011;58554;52.006;5.926;2023-05-10T09:21:36;16.40;;;7.40;;
70908;SDS011;58554;52.006;5.926;2023-05-10T09:24:03;17.53;;;8.37;;
70908;SDS011;58554;52.006;5.926;2023-05-10T09:26:31;16.75;;;7.95;;
70908;SDS011;58554;52.006;5.926;2023-05-10T09:29:01;15.82;;;7.72;;
70908;SDS011;58554;52.006;5.926;2023-05-10T09:31:43;15.45;;;7.10;;
70908;SDS011;58554;52.006;5.926;2023-05-10T09:34:13;15.13;;;6.67;;
70908;SDS011;58554;52.006;5.926;2023-05-10T09:36:50;15.53;;;6.57;;
70908;SDS011;58554;52.006;5.926;2023-05-10T09:39:17;13.90;;;6.40;;
70908;SDS011;58554;52.006;5.926;2023-05-10T09:41:44;10.95;;;5.70;;
70908;SDS011;58554;52.006;5.926;2023-05-10T09:44:14;10.18;;;5.28;;
70908;SDS011;58554;52.006;5.926;2023-05-10T09:46:42;13.67;;;5.67;;
70908;SDS011;58554;52.006;5.926;2023-05-10T09:49:14;13.32;;;5.80;;
70908;SDS011;58554;52.006;5.926;2023-05-10T09:51:40;13.52;;;5.60;;
70908;SDS011;58554;52.006;5.926;2023-05-10T09:54:10;12.85;;;5.28;;
70908;SDS011;58554;52.006;5.926;2023-05-10T09:56:38;11.88;;;6.10;;
70908;SDS011;58554;52.006;5.926;2023-05-10T09:59:05;12.40;;;5.93;;
70908;SDS011;58554;52.006;5.926;2023-05-10T10:01:39;11.97;;;5.90;;
70908;SDS011;58554;52.006;5.926;2023-05-10T10:04:08;10.93;;;5.80;;
70908;SDS011;58554;52.006;5.926;2023-05-10T10:06:36;12.60;;;5.63;;
70908;SDS011;58554;52.006;5.926;2023-05-10T10:09:04;12.90;;;5.83;;
70908;SDS011;58554;52.006;5.926;2023-05-10T10:11:31;11.57;;;6.07;;
70908;SDS011;58554;52.006;5.926;2023-05-10T10:14:01;12.25;;;5.80;;
70908;SDS011;58554;52.006;5.926;2023-05-10T10:16:28;10.57;;;5.75;;
70908;SDS011;58554;52.006;5.926;2023-05-10T10:18:59;14.57;;;6.40;;
70908;SDS011;58554;52.006;5.926;2023-05-10T10:21:26;12.10;;;6.30;;
70908;SDS011;58554;52.006;5.926;2023-05-10T10:23:53;13.05;;;6.20;;
70908;SDS011;58554;52.006;5.926;2023-05-10T10:26:20;13.10;;;6.00;;
70908;SDS011;58554;52.006;5.926;2023-05-10T10:28:49;13.13;;;6.33;;
70908;SDS011;58554;52.006;5.926;2023-05-10T10:31:36;12.20;;;5.93;;
70908;SDS011;58554;52.006;5.926;2023-05-10T10:34:21;12.35;;;6.25;;
70908;SDS011;58554;52.006;5.926;2023-05-10T10:36:53;10.30;;;6.20;;
70908;SDS011;58554;52.006;5.926;2023-05-10T10:39:21;12.23;;;5.80;;
70908;SDS011;58554;52.006;5.926;2023-05-10T10:41:50;11.50;;;6.10;;
70908;SDS011;58554;52.006;5.926;2023-05-10T10:44:22;13.00;;;6.27;;
70908;SDS011;58554;52.006;5.926;2023-05-10T10:47:02;10.45;;;5.70;;
70908;SDS011;58554;52.006;5.926;2023-05-10T10:49:37;12.87;;;5.97;;
70908;SDS011;58554;52.006;5.926;2023-05-10T10:52:22;11.55;;;6.03;;
70908;SDS011;58554;52.006;5.926;2023-05-10T10:54:51;15.13;;;6.25;;
70908;SDS011;58554;52.006;5.926;2023-05-10T10:57:22;12.60;;;5.60;;
70908;SDS011;58554;52.006;5.926;2023-05-10T10:59:49;11.95;;;5.70;;
70908;SDS011;58554;52.006;5.926;2023-05-10T11:08:06;12.57;;;5.60;;
70908;SDS011;58554;52.006;5.926;2023-05-10T11:10:48;11.68;;;6.35;;
70908;SDS011;58554;52.006;5.926;2023-05-10T11:13:29;10.95;;;5.90;;
70908;SDS011;58554;52.006;5.926;2023-05-10T11:15:57;12.00;;;6.40;;
70908;SDS011;58554;52.006;5.926;2023-05-10T11:18:36;11.90;;;6.40;;
70908;SDS011;58554;52.006;5.926;2023-05-10T11:21:08;12.60;;;6.40;;
70908;SDS011;58554;52.006;5.926;2023-05-10T11:23:47;11.93;;;6.22;;
70908;SDS011;58554;52.006;5.926;2023-05-10T11:26:15;15.18;;;6.55;;
70908;SDS011;58554;52.006;5.926;2023-05-10T11:28:45;12.48;;;7.00;;
70908;SDS011;58554;52.006;5.926;2023-05-10T11:31:14;11.73;;;6.20;;
70908;SDS011;58554;52.006;5.926;2023-05-10T11:33:42;10.63;;;6.07;;
70908;SDS011;58554;52.006;5.926;2023-05-10T11:36:13;14.00;;;5.90;;
70908;SDS011;58554;52.006;5.926;2023-05-10T11:38:42;11.73;;;5.78;;
70908;SDS011;58554;52.006;5.926;2023-05-10T11:41:09;13.45;;;6.30;;
70908;SDS011;58554;52.006;5.926;2023-05-10T11:43:36;10.57;;;5.85;;
70908;SDS011;58554;52.006;5.926;2023-05-10T11:46:05;9.10;;;4.97;;
70908;SDS011;58554;52.006;5.926;2023-05-10T11:48:33;9.70;;;5.37;;
70908;SDS011;58554;52.006;5.926;2023-05-10T11:51:00;10.97;;;5.60;;
70908;SDS011;58554;52.006;5.926;2023-05-10T11:53:30;8.30;;;4.93;;
70908;SDS011;58554;52.006;5.926;2023-05-10T11:56:02;9.10;;;5.30;;
70908;SDS011;58554;52.006;5.926;2023-05-10T11:58:30;10.40;;;5.30;;
70908;SDS011;58554;52.006;5.926;2023-05-10T12:00:57;9.60;;;5.10;;
70908;SDS011;58554;52.006;5.926;2023-05-10T12:03:25;12.60;;;4.80;;
70908;SDS011;58554;52.006;5.926;2023-05-10T12:05:52;8.97;;;4.77;;
70908;SDS011;58554;52.006;5.926;2023-05-10T12:08:21;9.27;;;5.03;;
70908;SDS011;58554;52.006;5.926;2023-05-10T12:10:53;10.17;;;4.97;;
70908;SDS011;58554;52.006;5.926;2023-05-10T12:13:32;9.45;;;4.95;;
70908;SDS011;58554;52.006;5.926;2023-05-10T12:16:12;9.73;;;5.20;;
70908;SDS011;58554;52.006;5.926;2023-05-10T12:18:39;10.57;;;5.50;;
70908;SDS011;58554;52.006;5.926;2023-05-10T12:21:07;9.93;;;5.28;;
70908;SDS011;58554;52.006;5.926;2023-05-10T12:23:35;9.90;;;4.87;;
70908;SDS011;58554;52.006;5.926;2023-05-10T12:26:04;11.57;;;5.40;;
70908;SDS011;58554;52.006;5.926;2023-05-10T12:28:34;10.00;;;5.18;;
70908;SDS011;58554;52.006;5.926;2023-05-10T12:31:01;9.55;;;5.13;;
70908;SDS011;58554;52.006;5.926;2023-05-10T12:33:35;7.53;;;5.05;;
70908;SDS011;58554;52.006;5.926;2023-05-10T12:36:03;8.88;;;4.70;;
70908;SDS011;58554;52.006;5.926;2023-05-10T12:38:32;8.77;;;4.87;;
70908;SDS011;58554;52.006;5.926;2023-05-10T12:41:00;7.07;;;4.17;;
70908;SDS011;58554;52.006;5.926;2023-05-10T12:43:33;7.72;;;4.03;;
70908;SDS011;58554;52.006;5.926;2023-05-10T12:46:05;6.83;;;3.93;;
70908;SDS011;58554;52.006;5.926;2023-05-10T12:48:34;10.60;;;4.20;;
70908;SDS011;58554;52.006;5.926;2023-05-10T12:51:01;8.25;;;4.20;;
70908;SDS011;58554;52.006;5.926;2023-05-10T12:53:29;7.63;;;4.50;;
70908;SDS011;58554;52.006;5.926;2023-05-10T12:55:56;9.10;;;4.53;;
70908;SDS011;58554;52.006;5.926;2023-05-10T12:58:28;9.40;;;4.97;;
70908;SDS011;58554;52.006;5.926;2023-05-10T13:00:55;8.38;;;4.50;;
70908;SDS011;58554;52.006;5.926;2023-05-10T13:03:21;8.27;;;5.00;;
70908;SDS011;58554;52.006;5.926;2023-05-10T13:05:48;7.50;;;4.20;;
70908;SDS011;58554;52.006;5.926;2023-05-10T13:08:15;9.20;;;4.60;;
70908;SDS011;58554;52.006;5.926;2023-05-10T13:10:41;9.70;;;4.83;;
70908;SDS011;58554;52.006;5.926;2023-05-10T13:13:08;7.97;;;4.68;;
70908;SDS011;58554;52.006;5.926;2023-05-10T13:15:37;8.83;;;4.70;;
70908;SDS011;58554;52.006;5.926;2023-05-10T13:18:04;7.03;;;4.23;;
70908;SDS011;58554;52.006;5.926;2023-05-10T13:20:30;6.83;;;4.23;;
70908;SDS011;58554;52.006;5.926;2023-05-10T13:22:57;8.17;;;4.53;;
70908;SDS011;58554;52.006;5.926;2023-05-10T13:25:23;7.75;;;4.80;;
70908;SDS011;58554;52.006;5.926;2023-05-10T13:27:50;6.60;;;3.90;;
70908;SDS011;58554;52.006;5.926;2023-05-10T13:30:17;8.25;;;4.35;;
70908;SDS011;58554;52.006;5.926;2023-05-10T13:32:46;7.27;;;4.03;;
70908;SDS011;58554;52.006;5.926;2023-05-10T13:35:14;7.27;;;4.43;;
70908;SDS011;58554;52.006;5.926;2023-05-10T13:37:40;8.57;;;4.47;;
70908;SDS011;58554;52.006;5.926;2023-05-10T13:40:07;8.73;;;4.22;;
70908;SDS011;58554;52.006;5.926;2023-05-10T13:42:35;7.47;;;4.57;;
70908;SDS011;58554;52.006;5.926;2023-05-10T13:45:01;8.02;;;4.38;;
70908;SDS011;58554;52.006;5.926;2023-05-10T13:47:28;7.70;;;4.30;;
70908;SDS011;58554;52.006;5.926;2023-05-10T13:49:58;7.57;;;4.27;;
70908;SDS011;58554;52.006;5.926;2023-05-10T13:52:24;7.97;;;4.30;;
70908;SDS011;58554;52.006;5.926;2023-05-10T13:54:52;7.27;;;4.10;;
70908;SDS011;58554;52.006;5.926;2023-05-10T13:57:18;8.23;;;4.83;;
70908;SDS011;58554;52.006;5.926;2023-05-10T13:59:45;9.05;;;4.68;;
70908;SDS011;58554;52.006;5.926;2023-05-10T14:02:12;9.82;;;5.57;;
70908;SDS011;58554;52.006;5.926;2023-05-10T14:04:38;12.77;;;6.90;;
70908;SDS011;58554;52.006;5.926;2023-05-10T14:07:07;12.37;;;7.60;;
70908;SDS011;58554;52.006;5.926;2023-05-10T14:09:34;12.07;;;7.90;;
70908;SDS011;58554;52.006;5.926;2023-05-10T14:12:00;13.68;;;8.13;;
70908;SDS011;58554;52.006;5.926;2023-05-10T14:14:27;12.53;;;7.77;;
70908;SDS011;58554;52.006;5.926;2023-05-10T14:16:53;10.87;;;7.33;;
70908;SDS011;58554;52.006;5.926;2023-05-10T14:19:20;14.57;;;7.40;;
70908;SDS011;58554;52.006;5.926;2023-05-10T14:21:46;13.00;;;7.15;;
70908;SDS011;58554;52.006;5.926;2023-05-10T14:24:16;11.55;;;7.60;;
70908;SDS011;58554;52.006;5.926;2023-05-10T14:26:42;12.73;;;7.50;;
70908;SDS011;58554;52.006;5.926;2023-05-10T14:29:09;14.13;;;7.40;;
70908;SDS011;58554;52.006;5.926;2023-05-10T14:31:35;11.65;;;7.10;;
70908;SDS011;58554;52.006;5.926;2023-05-10T14:34:02;10.43;;;7.22;;
70908;SDS011;58554;52.006;5.926;2023-05-10T14:36:28;11.40;;;6.93;;
70908;SDS011;58554;52.006;5.926;2023-05-10T14:38:55;10.97;;;6.93;;
70908;SDS011;58554;52.006;5.926;2023-05-10T14:41:24;10.30;;;6.33;;
70908;SDS011;58554;52.006;5.926;2023-05-10T14:43:50;9.73;;;6.27;;
70908;SDS011;58554;52.006;5.926;2023-05-10T14:46:17;9.70;;;6.28;;
70908;SDS011;58554;52.006;5.926;2023-05-10T14:48:44;9.13;;;5.90;;
70908;SDS011;58554;52.006;5.926;2023-05-10T14:51:10;9.53;;;5.90;;
70908;SDS011;58554;52.006;5.926;2023-05-10T14:53:37;9.23;;;5.80;;
70908;SDS011;58554;52.006;5.926;2023-05-10T14:56:03;8.82;;;5.72;;
70908;SDS011;58554;52.006;5.926;2023-05-10T14:58:33;8.77;;;4.90;;